Montour, Iowa
Current Conditions -  °F | °C
As of 8:06 AM on Wednesday 28 Jan 2015 (Local Time) from KMIW Reporting Station
Haze Haze  
Wind Chill: 16°   Ceiling: 500
Heat Index: 29°   Visibility: 2.5mi
Dew Point: 28°   Wind: 20mph
Humidity: 96%   Direction: 140°SE
Pressure: 30.03"   Gusts: 29mph
Location:  41.98°N, 92.71°W
Report Text: KMIW 281406Z AUTO 14017G25KT 2 1/2SM BR OVC005 M02/M02 A3003 RMK AO2 CIG 003V008 T10171022
Loading
Personal Weather Stations






























Interactive Weather Map New forecast layout! Learn more

10-Day Weather Forecast

Advertisements
Track Severe Weather on mobile